createdAt,value
2019-02-05T00:00:38.604Z,464.50
2019-02-05T00:03:11.595Z,424.50
2019-02-05T00:05:43.406Z,469.50
2019-02-05T00:08:16.545Z,454.75
2019-02-05T00:10:47.924Z,405.00
2019-02-05T00:13:19.824Z,436.00
2019-02-05T00:15:51.471Z,441.25
2019-02-05T00:18:23.094Z,451.50
2019-02-05T00:20:55.745Z,462.50
2019-02-05T00:23:27.590Z,404.50
2019-02-05T00:26:05.907Z,384.50
2019-02-05T00:28:32.741Z,411.75
2019-02-05T00:31:05.534Z,403.25
2019-02-05T00:33:37.055Z,423.25
2019-02-05T00:36:08.520Z,413.00
2019-02-05T00:38:40.050Z,417.00
2019-02-05T00:41:11.953Z,430.00
2019-02-05T00:43:43.518Z,360.25
2019-02-05T00:46:15.458Z,382.50
2019-02-05T00:48:47.433Z,411.25
2019-02-05T00:51:18.685Z,398.75
2019-02-05T00:53:50.062Z,416.50
2019-02-05T00:56:21.379Z,408.25
2019-02-05T00:58:53.789Z,390.25
2019-02-05T01:01:25.321Z,346.25
2019-02-05T01:03:56.668Z,385.75
2019-02-05T01:06:28.337Z,403.25
2019-02-05T01:08:59.981Z,385.25
2019-02-05T01:11:31.396Z,356.50
2019-02-05T01:14:03.544Z,362.25
2019-02-05T01:16:37.663Z,402.25
2019-02-05T01:19:09.466Z,386.25
2019-02-05T01:21:41.151Z,360.00
2019-02-05T01:24:12.836Z,391.75
2019-02-05T01:26:44.568Z,418.25
2019-02-05T01:29:16.718Z,387.75
2019-02-05T01:31:48.303Z,376.50
2019-02-05T01:34:20.005Z,405.25
2019-02-05T01:36:51.575Z,368.25
2019-02-05T01:39:23.019Z,397.00
2019-02-05T01:41:54.617Z,406.50
2019-02-05T01:44:26.302Z,392.50
2019-02-05T01:46:57.375Z,407.25
2019-02-05T01:49:28.575Z,392.50
2019-02-05T01:52:00.248Z,397.25
2019-02-05T01:54:31.810Z,395.50
2019-02-05T01:57:03.320Z,414.00
2019-02-05T01:59:34.975Z,374.00
2019-02-05T02:02:06.753Z,383.25
2019-02-05T02:04:38.390Z,395.75
2019-02-05T02:07:10.063Z,410.25
2019-02-05T02:09:41.469Z,415.50
2019-02-05T02:12:13.119Z,459.25
2019-02-05T02:14:44.752Z,411.50
2019-02-05T02:17:16.221Z,393.25
2019-02-05T02:19:47.980Z,428.75
2019-02-05T02:22:19.213Z,422.00
2019-02-05T02:24:50.882Z,404.25
2019-02-05T02:27:22.888Z,423.75
2019-02-05T02:29:54.522Z,419.00
2019-02-05T02:32:26.294Z,398.75
2019-02-05T02:34:57.757Z,430.25
2019-02-05T02:37:29.173Z,436.25
2019-02-05T02:40:01.023Z,464.00
2019-02-05T02:42:32.781Z,436.00
2019-02-05T02:45:05.102Z,414.50
2019-02-05T02:47:36.334Z,477.75
2019-02-05T02:50:08.203Z,454.00
2019-02-05T02:52:40.161Z,468.80
2019-02-05T02:55:11.738Z,476.25
2019-02-05T02:57:43.852Z,462.50
2019-02-05T03:00:17.334Z,462.75
2019-02-05T03:02:49.359Z,444.25
2019-02-05T03:05:22.633Z,477.20
2019-02-05T03:07:54.253Z,466.75
2019-02-05T03:10:32.417Z,540.20
2019-02-05T03:13:03.748Z,454.50
2019-02-05T03:15:35.322Z,500.00
2019-02-05T03:18:06.674Z,478.20
2019-02-05T03:20:38.403Z,502.00
2019-02-05T03:23:09.763Z,554.60
2019-02-05T03:25:41.411Z,541.00
2019-02-05T03:28:13.311Z,529.40
2019-02-05T03:30:44.966Z,521.20
2019-02-05T03:33:16.214Z,547.20
2019-02-05T03:35:47.682Z,483.40
2019-02-05T03:38:19.285Z,472.00
2019-02-05T03:41:09.803Z,441.60
2019-02-05T03:43:42.238Z,406.50
2019-02-05T03:46:15.143Z,407.75
2019-02-05T03:48:47.535Z,346.50
2019-02-05T03:52:05.465Z,361.00
2019-02-05T03:55:14.922Z,286.25
2019-02-05T03:58:18.887Z,311.25
2019-02-05T04:01:21.287Z,295.00
2019-02-05T04:04:38.138Z,290.25
2019-02-05T04:07:27.624Z,298.75
2019-02-05T04:10:37.365Z,291.50
2019-02-05T04:14:02.337Z,298.00
2019-02-05T04:17:22.279Z,350.25
2019-02-05T04:20:28.210Z,342.00
2019-02-05T04:23:49.305Z,335.75
2019-02-05T04:26:45.075Z,350.75
2019-02-05T04:29:47.601Z,313.75
2019-02-05T04:32:30.463Z,349.00
2019-02-05T04:35:52.631Z,328.00
2019-02-05T04:39:07.209Z,323.00
2019-02-05T04:42:03.264Z,314.00
2019-02-05T04:45:02.183Z,304.75
2019-02-05T04:48:23.052Z,331.25
2019-02-05T04:51:50.499Z,307.00
2019-02-05T04:54:34.294Z,307.25
2019-02-05T04:57:28.456Z,280.75
2019-02-05T05:00:46.660Z,277.00
2019-02-05T05:03:56.634Z,284.75
2019-02-05T05:07:08.633Z,291.00
2019-02-05T05:10:00.711Z,255.00
2019-02-05T05:12:32.903Z,254.25
2019-02-05T05:15:04.514Z,267.25
2019-02-05T05:17:36.221Z,274.00
2019-02-05T05:20:10.541Z,267.50
2019-02-05T05:22:43.347Z,267.75
2019-02-05T05:25:15.199Z,242.50
2019-02-05T05:27:46.704Z,238.00
2019-02-05T05:30:19.674Z,246.50
2019-02-05T05:32:51.377Z,217.25
2019-02-05T05:35:22.658Z,227.75
2019-02-05T05:37:54.787Z,242.25
2019-02-05T05:40:26.168Z,206.25
2019-02-05T05:42:57.627Z,225.25
2019-02-05T05:45:28.741Z,225.00
2019-02-05T05:48:00.073Z,198.40
2019-02-05T05:50:31.756Z,213.80
2019-02-05T05:53:03.287Z,211.20
2019-02-05T05:55:34.953Z,197.40
2019-02-05T05:58:06.609Z,181.00
2019-02-05T06:00:38.420Z,207.80
2019-02-05T06:03:10.204Z,189.40
2019-02-05T06:05:41.791Z,167.00
2019-02-05T06:08:13.216Z,183.00
2019-02-05T06:10:50.030Z,188.00
2019-02-05T06:13:21.127Z,166.40
2019-02-05T06:15:55.812Z,152.20
2019-02-05T06:18:31.265Z,153.60
2019-02-05T06:21:02.634Z,157.40
2019-02-05T06:23:34.008Z,162.20
2019-02-05T06:26:05.339Z,162.60
2019-02-05T06:28:38.122Z,169.40
2019-02-05T06:31:13.260Z,129.00
2019-02-05T06:33:45.153Z,152.40
2019-02-05T06:36:17.964Z,136.80
2019-02-05T06:38:49.162Z,148.80
2019-02-05T06:41:21.056Z,155.60
2019-02-05T06:43:52.293Z,152.40
2019-02-05T06:46:23.436Z,165.20
2019-02-05T06:48:55.044Z,148.80
2019-02-05T06:51:26.323Z,140.40
2019-02-05T06:53:57.463Z,117.20
2019-02-05T06:56:29.019Z,150.60
2019-02-05T06:59:00.268Z,171.40
2019-02-05T07:01:33.117Z,137.20
2019-02-05T07:04:04.822Z,132.00
2019-02-05T07:06:36.521Z,163.20
2019-02-05T07:09:11.277Z,115.00
2019-02-05T07:11:42.624Z,146.20
2019-02-05T07:14:14.032Z,140.40
2019-02-05T07:16:45.405Z,138.00
2019-02-05T07:19:16.676Z,141.00
2019-02-05T07:21:48.219Z,144.00
2019-02-05T07:24:20.869Z,145.20
2019-02-05T07:26:52.520Z,148.60
2019-02-05T07:29:24.175Z,166.80
2019-02-05T07:31:55.295Z,153.20
2019-02-05T07:34:26.514Z,147.20
2019-02-05T07:36:57.671Z,150.00
2019-02-05T07:39:28.870Z,139.00
2019-02-05T07:41:59.925Z,153.80
2019-02-05T07:44:31.432Z,111.40
2019-02-05T07:47:03.209Z,126.00
2019-02-05T07:49:34.433Z,118.80
2019-02-05T07:52:06.059Z,108.60
2019-02-05T07:54:37.297Z,121.00
2019-02-05T07:57:08.842Z,131.40
2019-02-05T07:59:40.692Z,141.00
2019-02-05T08:02:12.564Z,122.00
2019-02-05T08:04:44.062Z,139.60
2019-02-05T08:07:17.150Z,143.40
2019-02-05T08:09:48.499Z,140.80
2019-02-05T08:12:19.876Z,143.20
2019-02-05T08:14:51.937Z,131.60
2019-02-05T08:17:23.327Z,116.00
2019-02-05T08:19:55.540Z,121.40
2019-02-05T08:22:27.913Z,127.60
2019-02-05T08:25:00.456Z,129.60
2019-02-05T08:27:31.865Z,124.00
2019-02-05T08:30:03.375Z,150.40
2019-02-05T08:32:35.540Z,129.00
2019-02-05T08:35:08.352Z,131.60
2019-02-05T08:37:39.679Z,139.20
2019-02-05T08:40:14.168Z,126.60
2019-02-05T08:42:46.186Z,129.80
2019-02-05T08:45:20.403Z,125.40
2019-02-05T08:47:52.549Z,153.60
2019-02-05T08:50:27.436Z,149.00
2019-02-05T08:52:58.998Z,141.00
2019-02-05T08:55:30.992Z,149.00
2019-02-05T08:58:04.828Z,155.00
2019-02-05T09:00:38.074Z,142.60
2019-02-05T09:03:11.019Z,138.20
2019-02-05T09:05:43.122Z,141.20
2019-02-05T09:08:14.481Z,146.40
2019-02-05T09:10:46.071Z,157.60
2019-02-05T09:13:17.580Z,146.40
2019-02-05T09:15:49.197Z,159.60
2019-02-05T09:18:20.585Z,150.20
2019-02-05T09:20:52.030Z,152.00
2019-02-05T09:23:24.109Z,131.20
2019-02-05T09:25:55.987Z,146.80
2019-02-05T09:28:27.456Z,140.20
2019-02-05T09:30:58.721Z,142.00
2019-02-05T09:33:30.377Z,147.40
2019-02-05T09:36:02.478Z,152.00
2019-02-05T09:38:34.167Z,142.00
2019-02-05T09:41:05.671Z,132.80
2019-02-05T09:43:37.211Z,137.60
2019-02-05T09:46:08.650Z,139.00
2019-02-05T09:48:39.934Z,127.80
2019-02-05T09:51:11.343Z,128.60
2019-02-05T09:53:43.550Z,128.40
2019-02-05T09:56:15.655Z,121.40
2019-02-05T09:58:47.239Z,128.40
2019-02-05T10:01:18.864Z,140.60
2019-02-05T10:03:50.326Z,151.80
2019-02-05T10:06:21.818Z,151.80
2019-02-05T10:08:53.229Z,138.00
2019-02-05T10:11:24.675Z,128.40
2019-02-05T10:13:56.169Z,137.60
2019-02-05T10:16:27.369Z,148.60
2019-02-05T10:18:58.848Z,139.00
2019-02-05T10:21:30.373Z,145.80
2019-02-05T10:24:02.418Z,150.40
2019-02-05T10:26:33.713Z,162.80
2019-02-05T10:29:06.055Z,178.00
2019-02-05T10:31:40.069Z,172.80
2019-02-05T10:34:11.846Z,163.80
2019-02-05T10:36:43.174Z,185.20
2019-02-05T10:39:14.878Z,181.60
2019-02-05T10:41:46.348Z,179.60
2019-02-05T10:44:18.213Z,192.00
2019-02-05T10:46:49.993Z,174.80
2019-02-05T10:49:21.560Z,169.60
2019-02-05T10:51:53.339Z,179.60
2019-02-05T10:54:25.092Z,195.80
2019-02-05T10:56:56.740Z,171.60
2019-02-05T10:59:28.621Z,180.00
2019-02-05T11:02:00.657Z,175.20
2019-02-05T11:04:32.304Z,153.80
2019-02-05T11:07:03.883Z,162.80
2019-02-05T11:09:37.629Z,157.80
2019-02-05T11:12:11.988Z,185.40
2019-02-05T11:14:43.671Z,180.20
2019-02-05T11:17:15.116Z,174.80
2019-02-05T11:19:47.480Z,186.80
2019-02-05T11:22:19.233Z,155.00
2019-02-05T11:24:51.916Z,171.20
2019-02-05T11:27:23.534Z,170.40
2019-02-05T11:29:54.915Z,173.00
2019-02-05T11:32:26.284Z,160.40
2019-02-05T11:34:57.781Z,151.00
2019-02-05T11:37:29.085Z,155.00
2019-02-05T11:40:00.531Z,160.80
2019-02-05T11:42:32.770Z,158.40
2019-02-05T11:45:04.700Z,158.00
2019-02-05T11:47:36.662Z,145.20
2019-02-05T11:50:09.501Z,152.60
2019-02-05T11:52:40.877Z,174.40
2019-02-05T11:55:14.557Z,174.20
2019-02-05T11:57:46.405Z,169.80
2019-02-05T12:00:32.873Z,179.40
2019-02-05T12:02:59.741Z,165.80
2019-02-05T12:05:32.034Z,189.20
2019-02-05T12:08:08.049Z,192.80
2019-02-05T12:10:39.575Z,197.60
2019-02-05T12:13:11.685Z,186.60
2019-02-05T12:15:43.282Z,200.80
2019-02-05T12:18:14.828Z,194.60
2019-02-05T12:20:46.575Z,179.60
2019-02-05T12:23:17.925Z,189.40
2019-02-05T12:25:49.146Z,210.20
2019-02-05T12:28:20.599Z,211.50
2019-02-05T12:30:52.139Z,233.00
2019-02-05T12:33:23.899Z,219.00
2019-02-05T12:35:55.052Z,229.50
2019-02-05T12:38:26.458Z,229.00
2019-02-05T12:40:58.079Z,251.25
2019-02-05T12:43:29.729Z,265.25
2019-02-05T12:46:00.881Z,276.25
2019-02-05T12:48:32.798Z,248.75
2019-02-05T12:51:04.868Z,218.50
2019-02-05T12:53:38.070Z,230.75
2019-02-05T12:56:09.330Z,209.50
2019-02-05T12:58:40.717Z,222.60
2019-02-05T13:01:12.608Z,217.40
2019-02-05T13:03:43.997Z,209.80
2019-02-05T13:06:15.542Z,198.40
2019-02-05T13:08:47.260Z,227.00
2019-02-05T13:11:18.809Z,219.40
2019-02-05T13:13:50.755Z,209.60
2019-02-05T13:16:22.347Z,194.00
2019-02-05T13:18:53.810Z,203.80
2019-02-05T13:21:25.189Z,191.80
2019-02-05T13:23:56.507Z,225.20
2019-02-05T13:26:28.064Z,194.40
2019-02-05T13:28:59.402Z,209.80
2019-02-05T13:31:30.548Z,195.25
2019-02-05T13:34:02.168Z,213.40
2019-02-05T13:36:33.668Z,202.00
2019-02-05T13:39:09.676Z,231.50
2019-02-05T13:41:41.632Z,228.50
2019-02-05T13:44:13.118Z,224.25
2019-02-05T13:46:44.262Z,240.75
2019-02-05T13:49:16.113Z,219.50
2019-02-05T13:51:47.659Z,226.50
2019-02-05T13:54:19.078Z,210.50
2019-02-05T13:56:52.669Z,236.75
2019-02-05T13:59:24.176Z,213.50
2019-02-05T14:01:58.271Z,204.50
2019-02-05T14:04:29.820Z,219.00
2019-02-05T14:07:01.400Z,236.75
2019-02-05T14:09:32.811Z,217.00
2019-02-05T14:12:03.938Z,233.75
2019-02-05T14:14:35.628Z,228.25
2019-02-05T14:17:07.288Z,208.75
2019-02-05T14:19:42.300Z,236.75
2019-02-05T14:22:14.640Z,238.25
2019-02-05T14:24:45.791Z,215.75
2019-02-05T14:27:16.772Z,211.50
2019-02-05T14:29:48.199Z,219.75
2019-02-05T14:32:19.634Z,226.00
2019-02-05T14:34:51.093Z,240.75
2019-02-05T14:37:22.552Z,220.00
2019-02-05T14:40:01.638Z,240.00
2019-02-05T14:42:33.144Z,240.75
2019-02-05T14:45:05.200Z,222.00
2019-02-05T14:47:36.600Z,227.25
2019-02-05T14:50:11.404Z,233.00
2019-02-05T14:52:42.644Z,248.75
2019-02-05T14:55:14.012Z,243.75
2019-02-05T14:57:45.100Z,240.25
2019-02-05T15:00:26.190Z,241.50
2019-02-05T15:02:58.253Z,269.00
2019-02-05T15:05:29.794Z,228.50
2019-02-05T15:08:01.266Z,249.25
2019-02-05T15:10:32.984Z,216.25
2019-02-05T15:13:06.701Z,250.50
2019-02-05T15:15:38.502Z,223.25
2019-02-05T15:18:13.204Z,244.00
2019-02-05T15:20:46.924Z,249.50
2019-02-05T15:23:21.084Z,248.00
2019-02-05T15:25:52.657Z,288.50
2019-02-05T15:28:24.261Z,301.75
2019-02-05T15:30:55.615Z,250.50
2019-02-05T15:33:48.390Z,253.00
2019-02-05T15:36:33.405Z,249.25
2019-02-05T15:39:12.848Z,261.75
2019-02-05T15:41:44.045Z,268.00
2019-02-05T15:44:15.918Z,246.00
2019-02-05T15:46:47.051Z,250.25
2019-02-05T15:49:18.342Z,249.25
2019-02-05T15:51:49.913Z,229.00
2019-02-05T15:54:21.405Z,253.00
2019-02-05T15:56:53.266Z,277.25
2019-02-05T15:59:24.730Z,265.50
2019-02-05T16:02:06.063Z,245.50
2019-02-05T16:04:30.488Z,251.00
2019-02-05T16:07:01.741Z,231.50
2019-02-05T16:09:33.305Z,229.75
2019-02-05T16:12:04.649Z,249.00
2019-02-05T16:14:36.008Z,259.50
2019-02-05T16:17:07.402Z,249.50
2019-02-05T16:19:38.728Z,255.00
2019-02-05T16:22:10.464Z,233.75
2019-02-05T16:24:43.760Z,254.50
2019-02-05T16:27:15.469Z,234.50
2019-02-05T16:29:46.963Z,253.75
2019-02-05T16:32:18.240Z,243.50
2019-02-05T16:34:49.821Z,238.75
2019-02-05T16:37:21.438Z,248.25
2019-02-05T16:39:53.823Z,232.00
2019-02-05T16:42:25.380Z,221.25
2019-02-05T16:44:56.731Z,241.25
2019-02-05T16:47:28.474Z,229.80
2019-02-05T16:50:00.218Z,218.00
2019-02-05T16:52:32.114Z,211.80
2019-02-05T16:55:03.944Z,188.00
2019-02-05T16:57:35.225Z,224.20
2019-02-05T17:00:13.281Z,216.00
2019-02-05T17:02:45.475Z,201.40
2019-02-05T17:05:18.213Z,184.20
2019-02-05T17:07:49.841Z,198.40
2019-02-05T17:10:22.154Z,218.80
2019-02-05T17:12:53.511Z,192.00
2019-02-05T17:15:25.128Z,207.40
2019-02-05T17:17:56.754Z,203.80
2019-02-05T17:20:29.822Z,209.80
2019-02-05T17:23:01.651Z,208.20
2019-02-05T17:25:35.909Z,204.20
2019-02-05T17:28:06.884Z,191.80
2019-02-05T17:30:39.538Z,202.20
2019-02-05T17:33:11.536Z,205.00
2019-02-05T17:35:43.182Z,209.80
2019-02-05T17:38:15.565Z,210.60
2019-02-05T17:40:46.931Z,183.40
2019-02-05T17:43:18.650Z,195.20
2019-02-05T17:45:50.309Z,211.60
2019-02-05T17:48:21.904Z,207.20
2019-02-05T17:50:53.406Z,170.20
2019-02-05T17:53:25.180Z,219.00
2019-02-05T17:55:56.425Z,191.00
2019-02-05T17:58:27.817Z,185.40
2019-02-05T18:01:11.284Z,190.40
2019-02-05T18:03:42.857Z,218.40
2019-02-05T18:06:14.857Z,198.20
2019-02-05T18:08:46.067Z,208.60
2019-02-05T18:11:17.569Z,194.80
2019-02-05T18:13:48.782Z,170.00
2019-02-05T18:16:21.245Z,195.80
2019-02-05T18:18:52.583Z,193.20
2019-02-05T18:21:24.146Z,174.00
2019-02-05T18:23:55.667Z,199.00
2019-02-05T18:26:27.322Z,203.60
2019-02-05T18:28:58.490Z,185.00
2019-02-05T18:31:31.042Z,197.20
2019-02-05T18:34:02.226Z,197.60
2019-02-05T18:36:33.899Z,189.00
2019-02-05T18:39:07.863Z,193.40
2019-02-05T18:41:41.505Z,190.00
2019-02-05T18:44:12.872Z,194.00
2019-02-05T18:46:44.432Z,212.00
2019-02-05T18:49:15.870Z,170.20
2019-02-05T18:51:47.975Z,204.00
2019-02-05T18:54:19.561Z,192.20
2019-02-05T18:56:50.925Z,193.80
2019-02-05T18:59:22.470Z,196.80
2019-02-05T19:01:53.720Z,184.60
2019-02-05T19:04:24.942Z,180.20
2019-02-05T19:06:57.376Z,175.80
2019-02-05T19:09:28.734Z,187.60
2019-02-05T19:12:04.162Z,170.40
2019-02-05T19:14:33.183Z,192.20
2019-02-05T19:17:04.907Z,179.60
2019-02-05T19:19:36.817Z,171.00
2019-02-05T19:22:08.299Z,189.20
2019-02-05T19:25:07.625Z,167.60
2019-02-05T19:27:39.482Z,180.40
2019-02-05T19:30:12.884Z,165.00
2019-02-05T19:32:44.236Z,176.40
2019-02-05T19:35:16.111Z,171.60
2019-02-05T19:37:48.564Z,164.40
2019-02-05T19:40:20.006Z,165.40
2019-02-05T19:42:51.303Z,167.60
2019-02-05T19:45:44.632Z,165.80
2019-02-05T19:48:25.162Z,150.00
2019-02-05T19:50:56.789Z,169.00
2019-02-05T19:53:28.254Z,182.60
2019-02-05T19:55:59.948Z,161.00
2019-02-05T19:58:31.522Z,179.00
2019-02-05T20:01:03.277Z,177.80
2019-02-05T20:03:38.812Z,169.20
2019-02-05T20:06:07.426Z,158.00
2019-02-05T20:08:38.664Z,172.20
2019-02-05T20:11:11.011Z,177.00
2019-02-05T20:13:42.452Z,157.40
2019-02-05T20:16:13.728Z,162.00
2019-02-05T20:18:44.887Z,165.60
2019-02-05T20:21:16.718Z,180.60
2019-02-05T20:23:48.067Z,164.80
2019-02-05T20:26:20.018Z,181.20
2019-02-05T20:28:51.307Z,157.60
2019-02-05T20:31:23.654Z,173.60
2019-02-05T20:33:54.807Z,174.80
2019-02-05T20:36:26.151Z,167.80
2019-02-05T20:38:57.592Z,161.40
2019-02-05T20:41:29.183Z,163.60
2019-02-05T20:44:00.425Z,172.60
2019-02-05T20:46:31.922Z,173.60
2019-02-05T20:49:03.306Z,179.80
2019-02-05T20:51:37.570Z,167.00
2019-02-05T20:54:09.311Z,178.40
2019-02-05T20:56:40.867Z,162.40
2019-02-05T20:59:31.883Z,159.80
2019-02-05T21:02:03.287Z,148.60
2019-02-05T21:04:35.612Z,165.20
2019-02-05T21:07:07.516Z,178.60
2019-02-05T21:09:42.252Z,160.80
2019-02-05T21:12:14.053Z,164.60
2019-02-05T21:14:45.388Z,166.80
2019-02-05T21:17:17.262Z,149.20
2019-02-05T21:19:48.861Z,148.40
2019-02-05T21:22:20.000Z,152.40
2019-02-05T21:24:51.164Z,139.20
2019-02-05T21:27:22.578Z,127.00
2019-02-05T21:29:54.049Z,140.00
2019-02-05T21:32:25.501Z,138.60
2019-02-05T21:34:56.821Z,161.80
2019-02-05T21:37:28.270Z,150.60
2019-02-05T21:40:02.489Z,157.80
2019-02-05T21:42:33.384Z,149.40
2019-02-05T21:45:05.386Z,166.60
2019-02-05T21:47:37.304Z,143.00
2019-02-05T21:50:11.447Z,132.60
2019-02-05T21:52:43.071Z,150.20
2019-02-05T21:55:15.044Z,163.40
2019-02-05T21:57:46.504Z,174.60
2019-02-05T22:00:29.210Z,133.00
2019-02-05T22:03:00.768Z,165.80
2019-02-05T22:05:32.217Z,152.00
2019-02-05T22:08:04.187Z,142.80
2019-02-05T22:10:35.456Z,172.60
2019-02-05T22:13:07.421Z,159.40
2019-02-05T22:15:39.031Z,149.40
2019-02-05T22:18:10.384Z,112.60
2019-02-05T22:20:41.844Z,152.40
2019-02-05T22:23:13.389Z,149.20
2019-02-05T22:25:45.251Z,151.60
2019-02-05T22:28:16.517Z,141.60
2019-02-05T22:30:48.792Z,148.00
2019-02-05T22:33:20.060Z,141.00
2019-02-05T22:35:51.776Z,146.60
2019-02-05T22:38:23.941Z,141.80
2019-02-05T22:40:56.425Z,139.60
2019-02-05T22:43:27.692Z,168.00
2019-02-05T22:45:59.125Z,169.80
2019-02-05T22:48:30.941Z,143.60
2019-02-05T22:51:02.365Z,147.40
2019-02-05T22:53:33.923Z,145.00
2019-02-05T22:56:05.636Z,154.00
2019-02-05T22:58:37.299Z,141.20
2019-02-05T23:01:26.195Z,131.80
2019-02-05T23:04:18.609Z,173.80
2019-02-05T23:07:20.131Z,123.60
2019-02-05T23:10:00.375Z,166.40
2019-02-05T23:12:39.423Z,165.80
2019-02-05T23:15:28.821Z,155.40
2019-02-05T23:17:58.882Z,163.80
2019-02-05T23:20:31.004Z,157.80
2019-02-05T23:23:02.497Z,150.20
2019-02-05T23:25:34.043Z,148.60
2019-02-05T23:28:05.420Z,162.60
2019-02-05T23:30:37.011Z,138.80
2019-02-05T23:33:08.136Z,161.40
2019-02-05T23:35:42.933Z,160.80
2019-02-05T23:38:14.238Z,143.00
2019-02-05T23:40:45.473Z,145.00
2019-02-05T23:43:17.392Z,154.00
2019-02-05T23:46:00.895Z,145.40
2019-02-05T23:48:23.104Z,156.60
2019-02-05T23:50:54.531Z,136.00
2019-02-05T23:53:25.892Z,146.60
2019-02-05T23:55:58.731Z,142.40
2019-02-05T23:58:32.176Z,156.40
